This is the latest recevied weather packets stored in our database for station/object KF6RAL-6. If no packets are shown the sender has not sent any weather packets the latest 10 day(s).
| Time | Temp. | Humidity | Pressure | Rain* | Wind** | Luminosity | Snow |
|---|---|---|---|---|---|---|---|
| 1788638241 | 30° C | 15% | 1013.1 hPa | 0 mm | - | - | - |
| 1788637820 | 29.44° C | 14% | 1013.8 hPa | 0 mm | - | - | - |
| 1788637400 | 29.44° C | 15% | 1013.6 hPa | 0 mm | - | - | - |
| 1788636988 | 28.89° C | 14% | 1013.7 hPa | 0 mm | - | - | - |
| 1788636136 | 29.44° C | 17% | 1013.9 hPa | 0 mm | - | - | - |
| 1788635715 | 28.89° C | 16% | 1014.2 hPa | 0 mm | - | - | - |
| 1788635294 | 28.89° C | 15% | 1014.3 hPa | 0 mm | - | - | - |
| 1788634875 | 28.89° C | 17% | 1014.2 hPa | 0 mm | - | - | - |
| 1788634453 | 28.89° C | 17% | 1014.2 hPa | 0 mm | - | - | - |
| 1788634032 | 28.89° C | 16% | 1014.5 hPa | 0 mm | - | - | - |
| 1788633610 | 28.89° C | 17% | 1014.4 hPa | 0 mm | - | - | - |
| 1788633189 | 28.89° C | 16% | 1014.4 hPa | 0 mm | - | - | - |
| 1788632770 | 28.33° C | 16% | 1014.7 hPa | 0 mm | - | - | - |
| 1788632348 | 28.33° C | 16% | 1014.8 hPa | 0 mm | - | - | - |
| 1788631926 | 27.78° C | 17% | 1015.1 hPa | 0 mm | - | - | - |
| 1788631505 | 27.78° C | 16% | 1015.2 hPa | 0 mm | - | - | - |
| 1788631084 | 28.33° C | 15% | 1015.1 hPa | 0 mm | - | - | - |
| 1788630663 | 28.33° C | 16% | 1015 hPa | 0 mm | - | - | - |
| 1788630242 | 27.78° C | 16% | 1015.3 hPa | 0 mm | - | - | - |
| 1788629821 | 27.78° C | 16% | 1015.3 hPa | 0 mm | - | - | - |
| 1788628979 | 27.78° C | 16% | 1015.3 hPa | 0 mm | - | - | - |
| 1788628558 | 28.33° C | 16% | 1015.3 hPa | 0 mm | - | - | - |
| 1788628137 | 28.33° C | 16% | 1015.3 hPa | 0 mm | - | - | - |
| 1788627716 | 27.78° C | 17% | 1015.3 hPa | 0 mm | - | - | - |
| 1788627296 | 27.22° C | 18% | 1015.4 hPa | 0 mm | - | - | - |
* Rain latest hour (hover to see other rain measurements)
** Current wind speed in m/s (hover to see current wind gust speed)